createdAt,value
2023-04-26T00:00:17.160Z,4.80
2023-04-26T00:01:17.168Z,4.90
2023-04-26T00:02:17.311Z,5.01
2023-04-26T00:03:17.190Z,5.22
2023-04-26T00:04:17.403Z,5.24
2023-04-26T00:05:17.428Z,5.27
2023-04-26T00:06:17.146Z,5.32
2023-04-26T00:07:17.156Z,5.44
2023-04-26T00:08:17.103Z,5.37
2023-04-26T00:09:17.115Z,5.37
2023-04-26T00:10:17.098Z,5.26
2023-04-26T00:11:17.100Z,5.37
2023-04-26T00:12:17.086Z,5.37
2023-04-26T00:13:17.075Z,5.42
2023-04-26T00:14:17.124Z,5.38
2023-04-26T00:15:17.100Z,5.55
2023-04-26T00:16:17.274Z,5.48
2023-04-26T00:17:17.077Z,5.52
2023-04-26T00:18:17.153Z,5.47
2023-04-26T00:19:17.077Z,5.45
2023-04-26T00:20:17.072Z,5.52
2023-04-26T00:21:17.042Z,5.49
2023-04-26T00:22:17.025Z,5.60
2023-04-26T00:23:17.014Z,5.49
2023-04-26T00:24:16.984Z,5.58
2023-04-26T00:25:16.993Z,5.60
2023-04-26T00:26:17.014Z,5.35
2023-04-26T00:27:16.970Z,5.01
2023-04-26T00:28:16.974Z,4.65
2023-04-26T00:29:16.973Z,4.54
2023-04-26T00:30:16.964Z,4.35
2023-04-26T00:31:17.023Z,4.35
2023-04-26T00:32:16.977Z,4.26
2023-04-26T00:33:16.982Z,4.31
2023-04-26T00:34:16.932Z,4.43
2023-04-26T00:35:16.941Z,4.47
2023-04-26T00:36:16.945Z,4.61
2023-04-26T00:37:16.952Z,4.61
2023-04-26T00:38:16.935Z,4.49
2023-04-26T00:39:16.915Z,4.49
2023-04-26T00:40:16.897Z,4.47
2023-04-26T00:41:16.912Z,4.68
2023-04-26T00:42:16.922Z,4.71
2023-04-26T00:43:16.942Z,4.83
2023-04-26T00:44:16.941Z,4.84
2023-04-26T00:45:16.890Z,4.64
2023-04-26T00:46:17.114Z,4.64
2023-04-26T00:47:16.900Z,4.47
2023-04-26T00:48:16.877Z,4.35
2023-04-26T00:49:16.862Z,4.44
2023-04-26T00:50:16.839Z,4.36
2023-04-26T00:51:16.897Z,4.43
2023-04-26T00:52:16.873Z,4.44
2023-04-26T00:53:16.816Z,4.34
2023-04-26T00:54:16.841Z,4.28
2023-04-26T00:55:16.805Z,4.28
2023-04-26T00:56:16.826Z,4.35
2023-04-26T00:57:16.826Z,4.17
2023-04-26T00:58:16.810Z,4.06
2023-04-26T00:59:16.818Z,3.82
2023-04-26T01:00:16.819Z,3.46
2023-04-26T01:01:16.897Z,3.46
2023-04-26T01:02:16.892Z,3.52
2023-04-26T01:03:16.899Z,3.53
2023-04-26T01:04:16.977Z,3.31
2023-04-26T01:05:16.770Z,3.25
2023-04-26T01:06:16.769Z,3.34
2023-04-26T01:07:16.763Z,3.25
2023-04-26T01:08:16.773Z,3.16
2023-04-26T01:09:16.758Z,3.35
2023-04-26T01:10:16.709Z,3.26
2023-04-26T01:11:16.720Z,3.37
2023-04-26T01:12:16.730Z,3.45
2023-04-26T01:13:16.718Z,3.59
2023-04-26T01:14:16.781Z,3.71
2023-04-26T01:15:16.703Z,3.88
2023-04-26T01:16:16.715Z,3.99
2023-04-26T01:17:16.787Z,4.06
2023-04-26T01:18:16.722Z,4.11
2023-04-26T01:19:16.705Z,4.11
2023-04-26T01:20:16.690Z,4.13
2023-04-26T01:21:16.669Z,4.16
2023-04-26T01:22:16.683Z,4.24
2023-04-26T01:23:16.659Z,4.31
2023-04-26T01:24:16.627Z,4.29
2023-04-26T01:25:16.655Z,4.32
2023-04-26T01:26:16.606Z,4.42
2023-04-26T01:27:16.662Z,4.43
2023-04-26T01:28:16.616Z,4.35
2023-04-26T01:29:16.609Z,4.47
2023-04-26T01:30:16.599Z,4.36
2023-04-26T01:31:16.666Z,4.36
2023-04-26T01:32:16.609Z,4.31
2023-04-26T01:33:16.589Z,4.24
2023-04-26T01:34:16.604Z,4.20
2023-04-26T01:35:16.624Z,4.20
2023-04-26T01:36:16.554Z,4.13
2023-04-26T01:37:16.557Z,4.17
2023-04-26T01:38:16.553Z,4.02
2023-04-26T01:39:16.552Z,3.88
2023-04-26T01:40:16.551Z,3.89
2023-04-26T01:41:16.577Z,3.72
2023-04-26T01:42:16.541Z,3.71
2023-04-26T01:43:16.545Z,3.68
2023-04-26T01:44:16.565Z,3.50
2023-04-26T01:45:16.527Z,3.10
2023-04-26T01:46:16.552Z,3.05
2023-04-26T01:47:16.486Z,2.99
2023-04-26T01:48:16.545Z,3.12
2023-04-26T01:49:16.504Z,3.26
2023-04-26T01:50:16.483Z,3.20
2023-04-26T01:51:16.459Z,3.26
2023-04-26T01:52:16.502Z,3.28
2023-04-26T01:53:16.474Z,3.41
2023-04-26T01:54:16.457Z,3.34
2023-04-26T01:55:16.436Z,2.97
2023-04-26T01:56:16.421Z,2.63
2023-04-26T01:57:16.474Z,2.40
2023-04-26T01:58:16.439Z,2.33
2023-04-26T01:59:16.408Z,2.15
2023-04-26T02:00:16.417Z,2.29
2023-04-26T02:01:16.423Z,2.48
2023-04-26T02:02:16.425Z,2.73
2023-04-26T02:03:16.464Z,2.77
2023-04-26T02:04:16.373Z,2.94
2023-04-26T02:05:16.395Z,2.97
2023-04-26T02:06:16.397Z,3.12
2023-04-26T02:07:16.371Z,3.13
2023-04-26T02:08:16.351Z,3.30
2023-04-26T02:09:16.344Z,3.35
2023-04-26T02:10:16.361Z,3.33
2023-04-26T02:11:16.353Z,3.34
2023-04-26T02:12:16.346Z,3.45
2023-04-26T02:13:16.337Z,3.46
2023-04-26T02:14:16.359Z,3.45
2023-04-26T02:15:17.360Z,3.63
2023-04-26T02:16:16.378Z,3.62
2023-04-26T02:17:16.289Z,3.68
2023-04-26T02:18:16.290Z,3.68
2023-04-26T02:19:16.300Z,3.68
2023-04-26T02:20:16.298Z,3.64
2023-04-26T02:21:16.286Z,3.72
2023-04-26T02:22:16.267Z,3.71
2023-04-26T02:23:17.270Z,3.82
2023-04-26T02:24:16.261Z,3.78
2023-04-26T02:25:16.246Z,3.80
2023-04-26T02:26:16.232Z,3.84
2023-04-26T02:27:16.224Z,3.81
2023-04-26T02:28:16.325Z,3.74
2023-04-26T02:29:16.216Z,3.68
2023-04-26T02:30:16.267Z,3.70
2023-04-26T02:31:16.291Z,3.68
2023-04-26T02:32:16.192Z,3.71
2023-04-26T02:33:16.185Z,3.52
2023-04-26T02:34:17.214Z,3.28
2023-04-26T02:35:16.209Z,2.98
2023-04-26T02:36:16.244Z,2.97
2023-04-26T02:37:16.178Z,2.97
2023-04-26T02:38:16.168Z,3.12
2023-04-26T02:39:16.183Z,3.20
2023-04-26T02:40:16.140Z,3.26
2023-04-26T02:41:16.148Z,3.19
2023-04-26T02:42:16.151Z,3.26
2023-04-26T02:43:16.147Z,3.35
2023-04-26T02:44:16.129Z,3.37
2023-04-26T02:45:16.120Z,3.45
2023-04-26T02:46:17.348Z,3.49
2023-04-26T02:47:16.130Z,3.49
2023-04-26T02:48:16.101Z,3.42
2023-04-26T02:49:16.099Z,3.15
2023-04-26T02:50:16.102Z,2.98
2023-04-26T02:51:16.096Z,2.80
2023-04-26T02:52:16.073Z,2.83
2023-04-26T02:53:16.154Z,2.89
2023-04-26T02:54:16.059Z,2.92
2023-04-26T02:55:16.083Z,2.94
2023-04-26T02:56:16.061Z,2.92
2023-04-26T02:57:16.082Z,2.97
2023-04-26T02:58:16.030Z,2.98
2023-04-26T02:59:16.039Z,3.02
2023-04-26T03:00:16.035Z,3.13
2023-04-26T03:01:16.044Z,3.15
2023-04-26T03:02:16.098Z,3.12
2023-04-26T03:03:16.214Z,3.13
2023-04-26T03:04:16.253Z,3.22
2023-04-26T03:05:16.007Z,3.16
2023-04-26T03:06:15.991Z,3.17
2023-04-26T03:07:15.976Z,3.15
2023-04-26T03:08:15.954Z,3.17
2023-04-26T03:09:15.973Z,3.19
2023-04-26T03:10:15.952Z,3.15
2023-04-26T03:11:15.932Z,3.13
2023-04-26T03:12:15.950Z,3.13
2023-04-26T03:13:15.990Z,3.13
2023-04-26T03:14:16.053Z,2.92
2023-04-26T03:15:15.936Z,2.71
2023-04-26T03:16:15.955Z,2.76
2023-04-26T03:17:15.939Z,2.83
2023-04-26T03:18:15.923Z,2.81
2023-04-26T03:19:15.888Z,2.79
2023-04-26T03:20:15.943Z,2.84
2023-04-26T03:21:16.052Z,2.90
2023-04-26T03:22:15.913Z,2.92
2023-04-26T03:23:15.875Z,2.95
2023-04-26T03:24:15.854Z,2.97
2023-04-26T03:25:15.885Z,3.13
2023-04-26T03:26:15.852Z,3.15
2023-04-26T03:27:15.860Z,3.13
2023-04-26T03:28:15.830Z,3.08
2023-04-26T03:29:15.868Z,3.17
2023-04-26T03:30:15.831Z,3.15
2023-04-26T03:31:15.825Z,3.25
2023-04-26T03:32:15.892Z,3.26
2023-04-26T03:33:15.804Z,3.25
2023-04-26T03:34:15.817Z,3.20
2023-04-26T03:35:15.803Z,3.28
2023-04-26T03:36:15.807Z,3.30
2023-04-26T03:37:15.776Z,3.31
2023-04-26T03:38:15.756Z,3.26
2023-04-26T03:39:15.800Z,3.30
2023-04-26T03:40:15.806Z,3.20
2023-04-26T03:41:15.792Z,3.02
2023-04-26T03:42:15.789Z,3.04
2023-04-26T03:43:15.759Z,3.20
2023-04-26T03:44:15.732Z,3.15
2023-04-26T03:45:15.767Z,3.17
2023-04-26T03:46:15.734Z,3.19
2023-04-26T03:47:15.730Z,3.15
2023-04-26T03:48:15.711Z,3.15
2023-04-26T03:49:15.699Z,3.19
2023-04-26T03:50:15.725Z,3.12
2023-04-26T03:51:15.713Z,3.19
2023-04-26T03:52:15.693Z,3.07
2023-04-26T03:53:15.687Z,2.90
2023-04-26T03:54:15.683Z,2.62
2023-04-26T03:55:15.664Z,2.26
2023-04-26T03:56:15.753Z,1.83
2023-04-26T03:57:15.692Z,1.77
2023-04-26T03:58:15.671Z,1.89
2023-04-26T03:59:15.642Z,2.00
2023-04-26T04:00:15.639Z,2.05
2023-04-26T04:01:15.620Z,2.22
2023-04-26T04:02:15.685Z,2.22
2023-04-26T04:03:15.800Z,2.43
2023-04-26T04:04:15.931Z,2.45
2023-04-26T04:05:15.751Z,2.56
2023-04-26T04:06:15.589Z,2.71
2023-04-26T04:07:15.581Z,2.77
2023-04-26T04:08:15.612Z,2.62
2023-04-26T04:09:15.570Z,2.80
2023-04-26T04:10:15.587Z,2.76
2023-04-26T04:11:16.796Z,2.84
2023-04-26T04:12:15.575Z,2.90
2023-04-26T04:13:15.659Z,2.86
2023-04-26T04:14:15.562Z,2.90
2023-04-26T04:15:15.529Z,2.92
2023-04-26T04:16:15.575Z,3.05
2023-04-26T04:17:15.545Z,3.02
2023-04-26T04:18:15.560Z,3.01
2023-04-26T04:19:15.592Z,3.04
2023-04-26T04:20:15.511Z,3.02
2023-04-26T04:21:15.509Z,2.95
2023-04-26T04:22:15.497Z,3.04
2023-04-26T04:23:15.517Z,2.99
2023-04-26T04:24:15.522Z,3.13
2023-04-26T04:25:15.521Z,3.13
2023-04-26T04:26:15.514Z,3.07
2023-04-26T04:27:15.455Z,3.16
2023-04-26T04:28:15.473Z,3.35
2023-04-26T04:29:15.441Z,3.57
2023-04-26T04:30:15.459Z,3.96
2023-04-26T04:31:15.449Z,4.21
2023-04-26T04:32:15.429Z,4.32
2023-04-26T04:33:15.449Z,4.34
2023-04-26T04:34:15.425Z,4.26
2023-04-26T04:35:15.444Z,4.20
2023-04-26T04:36:15.429Z,4.28
2023-04-26T04:37:15.416Z,4.24
2023-04-26T04:38:15.401Z,4.25
2023-04-26T04:39:15.380Z,4.50
2023-04-26T04:40:15.370Z,4.72
2023-04-26T04:41:15.410Z,5.04
2023-04-26T04:42:15.382Z,5.22
2023-04-26T04:43:15.344Z,5.33
2023-04-26T04:44:16.380Z,5.22
2023-04-26T04:45:15.348Z,5.26
2023-04-26T04:46:15.418Z,5.66
2023-04-26T04:47:15.342Z,6.20
2023-04-26T04:48:15.335Z,6.54
2023-04-26T04:49:15.407Z,6.79
2023-04-26T04:50:15.320Z,6.96
2023-04-26T04:51:15.305Z,7.24
2023-04-26T04:52:16.865Z,7.54
2023-04-26T04:53:15.326Z,7.71
2023-04-26T04:54:15.338Z,8.09
2023-04-26T04:55:15.303Z,8.17
2023-04-26T04:56:15.278Z,8.27
2023-04-26T04:57:15.307Z,8.03
2023-04-26T04:58:15.293Z,7.94
2023-04-26T04:59:15.263Z,8.13
2023-04-26T05:00:15.253Z,7.94
2023-04-26T05:01:15.273Z,8.07
2023-04-26T05:02:15.430Z,7.58
2023-04-26T05:03:15.456Z,7.07
2023-04-26T05:04:15.536Z,7.24
2023-04-26T05:05:15.287Z,7.33
2023-04-26T05:06:15.245Z,7.09
2023-04-26T05:07:15.276Z,7.26
2023-04-26T05:08:15.222Z,7.01
2023-04-26T05:09:15.253Z,6.99
2023-04-26T05:10:15.215Z,7.30
2023-04-26T05:11:15.211Z,7.86
2023-04-26T05:12:15.196Z,8.32
2023-04-26T05:13:15.248Z,8.49
2023-04-26T05:14:15.228Z,8.73
2023-04-26T05:15:15.183Z,8.75
2023-04-26T05:16:15.240Z,8.83
2023-04-26T05:17:15.212Z,8.88
2023-04-26T05:18:15.231Z,8.58
2023-04-26T05:19:15.204Z,8.18
2023-04-26T05:20:15.222Z,7.82
2023-04-26T05:21:15.180Z,7.63
2023-04-26T05:22:15.194Z,7.39
2023-04-26T05:23:15.196Z,7.45
2023-04-26T05:24:15.191Z,7.76
2023-04-26T05:25:15.165Z,7.92
2023-04-26T05:26:15.186Z,8.06
2023-04-26T05:27:15.201Z,8.36
2023-04-26T05:28:15.151Z,8.47
2023-04-26T05:29:15.204Z,8.58
2023-04-26T05:30:15.156Z,8.79
2023-04-26T05:31:15.350Z,8.85
2023-04-26T05:32:15.128Z,8.47
2023-04-26T05:33:15.165Z,8.14
2023-04-26T05:34:15.117Z,7.58
2023-04-26T05:35:15.117Z,7.50
2023-04-26T05:36:15.088Z,7.58
2023-04-26T05:37:15.897Z,7.85
2023-04-26T05:38:15.129Z,8.18
2023-04-26T05:39:15.111Z,8.36
2023-04-26T05:40:15.100Z,8.61
2023-04-26T05:41:15.084Z,8.83
2023-04-26T05:42:17.097Z,8.86
2023-04-26T05:43:15.067Z,9.06
2023-04-26T05:44:15.084Z,9.23
2023-04-26T05:45:15.088Z,9.31
2023-04-26T05:46:15.105Z,9.44
2023-04-26T05:47:15.124Z,9.49
2023-04-26T05:48:15.103Z,9.55
2023-04-26T05:49:15.024Z,9.55
2023-04-26T05:50:15.073Z,9.56
2023-04-26T05:51:15.078Z,9.52
2023-04-26T05:52:15.018Z,9.68
2023-04-26T05:53:15.038Z,9.68
2023-04-26T05:54:15.012Z,9.77
2023-04-26T05:55:15.073Z,9.99
2023-04-26T05:56:15.030Z,10.06
2023-04-26T05:57:15.096Z,10.16
2023-04-26T05:58:14.994Z,10.20
2023-04-26T05:59:15.007Z,10.42
2023-04-26T06:00:14.989Z,10.38
2023-04-26T06:01:15.016Z,10.39
2023-04-26T06:02:15.048Z,10.46
2023-04-26T06:03:15.070Z,10.44
2023-04-26T06:04:15.234Z,10.24
2023-04-26T06:05:15.068Z,10.14
2023-04-26T06:06:15.032Z,10.04
2023-04-26T06:07:14.974Z,9.49
2023-04-26T06:08:14.944Z,8.83
2023-04-26T06:09:14.927Z,8.67
2023-04-26T06:10:14.945Z,7.99
2023-04-26T06:11:14.945Z,7.00
2023-04-26T06:12:14.960Z,6.53
2023-04-26T06:13:14.945Z,6.76
2023-04-26T06:14:29.220Z,6.81
2023-04-26T06:15:16.911Z,6.78
2023-04-26T06:16:14.955Z,7.18
2023-04-26T06:17:15.156Z,7.62
2023-04-26T06:18:14.948Z,7.94
2023-04-26T06:19:14.933Z,8.34
2023-04-26T06:20:14.896Z,7.74
2023-04-26T06:21:14.894Z,6.97
2023-04-26T06:22:14.891Z,6.78
2023-04-26T06:23:14.905Z,6.64
2023-04-26T06:24:14.935Z,6.79
2023-04-26T06:25:14.911Z,6.96
2023-04-26T06:26:14.890Z,6.71
2023-04-26T06:27:14.858Z,6.76
2023-04-26T06:28:14.875Z,7.24
2023-04-26T06:29:14.857Z,7.54
2023-04-26T06:30:14.851Z,7.41
2023-04-26T06:31:14.933Z,7.00
2023-04-26T06:32:14.862Z,7.15
2023-04-26T06:33:14.847Z,7.57
2023-04-26T06:34:14.834Z,8.12
2023-04-26T06:35:14.827Z,8.40
2023-04-26T06:36:14.824Z,8.94
2023-04-26T06:37:14.821Z,9.42
2023-04-26T06:38:14.831Z,9.81
2023-04-26T06:39:14.822Z,10.07
2023-04-26T06:40:16.001Z,10.44
2023-04-26T06:41:14.904Z,10.72
2023-04-26T06:42:14.791Z,10.86
2023-04-26T06:43:14.800Z,10.47
2023-04-26T06:44:14.826Z,9.98
2023-04-26T06:45:14.774Z,10.09
2023-04-26T06:46:14.852Z,10.22
2023-04-26T06:47:14.776Z,10.34
2023-04-26T06:48:14.804Z,10.62
2023-04-26T06:49:14.821Z,10.52
2023-04-26T06:50:14.792Z,10.55
2023-04-26T06:51:14.742Z,10.46
2023-04-26T06:52:14.743Z,10.69
2023-04-26T06:53:14.745Z,10.75
2023-04-26T06:54:14.750Z,10.86
2023-04-26T06:55:14.755Z,10.76
2023-04-26T06:56:14.885Z,9.65
2023-04-26T06:57:14.733Z,9.16
2023-04-26T06:58:14.730Z,9.42
2023-04-26T06:59:14.757Z,9.88
2023-04-26T07:00:14.740Z,9.86
2023-04-26T07:01:14.769Z,10.02
2023-04-26T07:02:15.778Z,10.24
2023-04-26T07:03:15.899Z,10.55
2023-04-26T07:04:14.961Z,10.87
2023-04-26T07:05:14.809Z,11.09
2023-04-26T07:06:14.709Z,11.39
2023-04-26T07:07:14.682Z,11.60
2023-04-26T07:08:14.692Z,12.00
2023-04-26T07:09:14.677Z,12.04
2023-04-26T07:10:14.793Z,11.36
2023-04-26T07:11:14.693Z,10.76
2023-04-26T07:12:14.667Z,10.13
2023-04-26T07:13:14.676Z,10.13
2023-04-26T07:14:14.725Z,10.51
2023-04-26T07:15:14.682Z,10.73
2023-04-26T07:16:14.679Z,10.81
2023-04-26T07:17:14.616Z,10.55
2023-04-26T07:18:14.678Z,10.22
2023-04-26T07:19:14.625Z,10.13
2023-04-26T07:20:14.638Z,10.16
2023-04-26T07:21:14.596Z,10.25
2023-04-26T07:22:14.646Z,10.29
2023-04-26T07:23:14.588Z,10.29
2023-04-26T07:24:14.609Z,10.24
2023-04-26T07:25:14.586Z,10.47
2023-04-26T07:26:14.653Z,10.60
2023-04-26T07:27:14.565Z,10.68
2023-04-26T07:28:14.632Z,10.34
2023-04-26T07:29:14.549Z,10.06
2023-04-26T07:30:14.632Z,9.99
2023-04-26T07:31:14.561Z,9.23
2023-04-26T07:32:14.598Z,8.88
2023-04-26T07:33:14.625Z,8.80
2023-04-26T07:34:14.540Z,9.59
2023-04-26T07:35:14.554Z,9.95
2023-04-26T07:36:14.532Z,10.29
2023-04-26T07:37:14.516Z,10.55
2023-04-26T07:38:14.530Z,10.63
2023-04-26T07:39:14.494Z,10.80
2023-04-26T07:40:15.518Z,11.09
2023-04-26T07:41:14.506Z,11.19
2023-04-26T07:42:14.497Z,10.98
2023-04-26T07:43:14.516Z,10.72
2023-04-26T07:44:14.527Z,10.62
2023-04-26T07:45:14.480Z,10.81
2023-04-26T07:46:14.494Z,11.01
2023-04-26T07:47:14.489Z,11.08
2023-04-26T07:48:14.632Z,11.09
2023-04-26T07:49:14.501Z,11.17
2023-04-26T07:50:14.470Z,11.26
2023-04-26T07:51:14.462Z,10.95
2023-04-26T07:52:14.429Z,10.78
2023-04-26T07:53:14.428Z,10.46
2023-04-26T07:54:14.430Z,10.18
2023-04-26T07:55:15.364Z,9.88
2023-04-26T07:56:14.427Z,9.20
2023-04-26T07:57:14.401Z,8.91
2023-04-26T07:58:14.389Z,8.82
2023-04-26T07:59:14.433Z,8.49
2023-04-26T08:00:14.390Z,8.47
2023-04-26T08:01:15.250Z,8.50
2023-04-26T08:02:14.529Z,8.58
2023-04-26T08:03:14.503Z,8.88
2023-04-26T08:04:14.573Z,9.20
2023-04-26T08:05:14.560Z,9.59
2023-04-26T08:06:14.489Z,10.04
2023-04-26T08:07:14.360Z,10.44
2023-04-26T08:08:14.372Z,10.80
2023-04-26T08:09:14.357Z,11.09
2023-04-26T08:10:14.374Z,10.95
2023-04-26T08:11:14.392Z,10.46
2023-04-26T08:12:14.421Z,9.40
2023-04-26T08:13:14.332Z,9.19
2023-04-26T08:14:14.309Z,9.31
2023-04-26T08:15:14.348Z,9.62
2023-04-26T08:16:14.369Z,9.56
2023-04-26T08:17:14.418Z,9.32
2023-04-26T08:18:14.379Z,9.31
2023-04-26T08:19:14.279Z,9.40
2023-04-26T08:20:14.312Z,9.17
2023-04-26T08:21:14.386Z,8.97
2023-04-26T08:22:14.273Z,9.04
2023-04-26T08:23:14.323Z,9.10
2023-04-26T08:24:14.250Z,9.26
2023-04-26T08:25:14.286Z,9.22
2023-04-26T08:26:14.270Z,9.22
2023-04-26T08:27:14.274Z,9.30
2023-04-26T08:28:14.266Z,9.37
2023-04-26T08:29:14.215Z,9.32
2023-04-26T08:30:14.230Z,9.67
2023-04-26T08:31:15.722Z,10.17
2023-04-26T08:32:14.263Z,10.63
2023-04-26T08:33:14.234Z,11.26
2023-04-26T08:34:14.205Z,11.74
2023-04-26T08:35:14.205Z,11.94
2023-04-26T08:36:14.208Z,12.01
2023-04-26T08:37:14.226Z,11.97
2023-04-26T08:38:14.207Z,11.75
2023-04-26T08:39:14.167Z,11.39
2023-04-26T08:40:14.184Z,10.78
2023-04-26T08:41:14.163Z,10.22
2023-04-26T08:42:14.173Z,9.73
2023-04-26T08:43:14.199Z,9.41
2023-04-26T08:44:14.168Z,9.20
2023-04-26T08:45:14.148Z,9.30
2023-04-26T08:46:14.226Z,9.15
2023-04-26T08:47:14.153Z,9.17
2023-04-26T08:48:14.197Z,9.08
2023-04-26T08:49:14.125Z,9.19
2023-04-26T08:50:14.119Z,9.15
2023-04-26T08:51:14.094Z,9.06
2023-04-26T08:52:14.096Z,9.20
2023-04-26T08:53:14.090Z,9.10
2023-04-26T08:54:14.111Z,9.19
2023-04-26T08:55:14.069Z,9.40
2023-04-26T08:56:14.070Z,9.24
2023-04-26T08:57:14.059Z,9.19
2023-04-26T08:58:14.073Z,9.45
2023-04-26T08:59:15.037Z,9.32
2023-04-26T09:00:15.092Z,9.22
2023-04-26T09:01:14.097Z,9.17
2023-04-26T09:02:14.261Z,9.00
2023-04-26T09:03:14.158Z,8.88
2023-04-26T09:04:14.248Z,8.94
2023-04-26T09:05:14.303Z,9.01
2023-04-26T09:06:14.052Z,9.17
2023-04-26T09:07:14.029Z,9.15
2023-04-26T09:08:14.039Z,8.85
2023-04-26T09:09:14.056Z,8.86
2023-04-26T09:10:14.027Z,8.80
2023-04-26T09:11:14.036Z,8.76
2023-04-26T09:12:13.989Z,8.67
2023-04-26T09:13:13.973Z,8.83
2023-04-26T09:14:14.002Z,8.96
2023-04-26T09:15:13.999Z,8.88
2023-04-26T09:16:14.030Z,8.97
2023-04-26T09:17:13.997Z,8.98
2023-04-26T09:18:13.998Z,9.10
2023-04-26T09:19:13.983Z,9.24
2023-04-26T09:20:13.964Z,9.16
2023-04-26T09:21:13.944Z,9.10
2023-04-26T09:22:14.062Z,8.97
2023-04-26T09:23:13.955Z,9.04
2023-04-26T09:24:13.929Z,9.12
2023-04-26T09:25:13.943Z,9.08
2023-04-26T09:26:13.916Z,9.00
2023-04-26T09:27:13.966Z,9.13
2023-04-26T09:28:13.899Z,9.22
2023-04-26T09:29:13.894Z,9.22
2023-04-26T09:30:13.885Z,9.10
2023-04-26T09:31:13.932Z,9.16
2023-04-26T09:32:13.897Z,9.48
2023-04-26T09:33:13.980Z,9.44
2023-04-26T09:34:13.868Z,9.53
2023-04-26T09:35:13.898Z,9.63
2023-04-26T09:36:14.907Z,9.67
2023-04-26T09:37:13.893Z,9.88
2023-04-26T09:38:14.475Z,9.83
2023-04-26T09:39:13.838Z,10.01
2023-04-26T09:40:13.835Z,10.07
2023-04-26T09:41:13.868Z,10.09
2023-04-26T09:42:13.859Z,10.14
2023-04-26T09:43:13.857Z,10.31
2023-04-26T09:44:13.806Z,10.24
2023-04-26T09:45:13.832Z,10.25
2023-04-26T09:46:13.880Z,10.34
2023-04-26T09:47:13.896Z,10.36
2023-04-26T09:48:13.828Z,10.49
2023-04-26T09:49:13.800Z,10.58
2023-04-26T09:50:13.820Z,10.62
2023-04-26T09:51:13.789Z,10.54
2023-04-26T09:52:13.812Z,10.60
2023-04-26T09:53:13.823Z,10.73
2023-04-26T09:54:13.800Z,10.87
2023-04-26T09:55:25.364Z,10.93
2023-04-26T09:56:15.786Z,10.83
2023-04-26T09:57:13.789Z,10.88
2023-04-26T09:58:13.776Z,10.90
2023-04-26T09:59:13.769Z,10.94
2023-04-26T10:00:13.736Z,11.09
2023-04-26T10:01:13.809Z,11.02
2023-04-26T10:02:13.812Z,10.94
2023-04-26T10:03:13.873Z,10.75
2023-04-26T10:04:13.851Z,10.91
2023-04-26T10:05:13.725Z,11.28
2023-04-26T10:06:13.717Z,11.49
2023-04-26T10:07:13.700Z,11.78
2023-04-26T10:08:13.862Z,11.63
2023-04-26T10:09:14.170Z,11.59
2023-04-26T10:10:13.688Z,11.59
2023-04-26T10:11:13.769Z,11.62
2023-04-26T10:12:13.689Z,11.57
2023-04-26T10:13:13.744Z,11.44
2023-04-26T10:14:13.723Z,11.13
2023-04-26T10:15:14.656Z,10.66
2023-04-26T10:16:13.706Z,9.70
2023-04-26T10:17:13.662Z,8.94
2023-04-26T10:18:13.679Z,8.57
2023-04-26T10:19:13.668Z,8.55
2023-04-26T10:20:13.639Z,8.55
2023-04-26T10:21:13.618Z,8.64
2023-04-26T10:22:13.619Z,8.93
2023-04-26T10:23:14.878Z,9.04
2023-04-26T10:24:13.650Z,9.24
2023-04-26T10:25:13.665Z,9.44
2023-04-26T10:26:13.676Z,9.67
2023-04-26T10:27:13.616Z,9.83
2023-04-26T10:28:13.599Z,9.99
2023-04-26T10:29:13.612Z,10.17
2023-04-26T10:30:13.735Z,10.29
2023-04-26T10:31:13.606Z,10.20
2023-04-26T10:32:13.649Z,10.34
2023-04-26T10:33:13.661Z,10.42
2023-04-26T10:34:13.559Z,10.55
2023-04-26T10:35:13.660Z,10.60
2023-04-26T10:36:13.578Z,10.84
2023-04-26T10:37:13.634Z,11.01
2023-04-26T10:38:13.547Z,10.98
2023-04-26T10:39:13.559Z,11.08
2023-04-26T10:40:13.586Z,10.90
2023-04-26T10:41:13.533Z,10.68
2023-04-26T10:42:13.556Z,9.88
2023-04-26T10:43:13.540Z,9.63
2023-04-26T10:44:13.505Z,9.49
2023-04-26T10:45:13.540Z,9.48
2023-04-26T10:46:14.974Z,9.65
2023-04-26T10:47:13.482Z,9.78
2023-04-26T10:48:13.516Z,9.95
2023-04-26T10:49:13.519Z,10.10
2023-04-26T10:50:13.523Z,9.83
2023-04-26T10:51:13.475Z,9.60
2023-04-26T10:52:13.494Z,9.40
2023-04-26T10:53:13.499Z,9.42
2023-04-26T10:54:13.465Z,9.35
2023-04-26T10:55:13.480Z,8.94
2023-04-26T10:56:13.468Z,8.79
2023-04-26T10:57:13.442Z,8.86
2023-04-26T10:58:13.437Z,8.76
2023-04-26T10:59:33.159Z,8.80
2023-04-26T11:00:15.601Z,8.89
2023-04-26T11:01:13.542Z,8.79
2023-04-26T11:02:13.545Z,8.94
2023-04-26T11:03:13.599Z,8.91
2023-04-26T11:04:13.555Z,8.83
2023-04-26T11:05:13.429Z,8.76
2023-04-26T11:06:13.401Z,8.98
2023-04-26T11:07:13.413Z,9.17
2023-04-26T11:08:13.387Z,9.01
2023-04-26T11:09:13.389Z,9.00
2023-04-26T11:10:13.385Z,9.06
2023-04-26T11:11:13.490Z,9.00
2023-04-26T11:12:13.392Z,9.22
2023-04-26T11:13:13.367Z,9.60
2023-04-26T11:14:13.352Z,9.75
2023-04-26T11:15:13.364Z,10.13
2023-04-26T11:16:13.497Z,9.91
2023-04-26T11:17:13.423Z,9.68
2023-04-26T11:18:13.339Z,9.70
2023-04-26T11:19:13.345Z,9.41
2023-04-26T11:20:13.432Z,9.23
2023-04-26T11:21:14.369Z,9.31
2023-04-26T11:22:13.364Z,9.44
2023-04-26T11:23:13.325Z,9.48
2023-04-26T11:24:13.312Z,9.50
2023-04-26T11:25:13.347Z,9.49
2023-04-26T11:26:13.367Z,9.13
2023-04-26T11:27:13.499Z,9.10
2023-04-26T11:28:13.359Z,9.06
2023-04-26T11:29:13.286Z,9.00
2023-04-26T11:30:13.314Z,8.96
2023-04-26T11:31:13.313Z,9.12
2023-04-26T11:32:13.304Z,8.75
2023-04-26T11:33:13.293Z,8.82
2023-04-26T11:34:13.263Z,8.79
2023-04-26T11:35:13.279Z,8.88
2023-04-26T11:36:13.249Z,8.78
2023-04-26T11:37:13.230Z,8.91
2023-04-26T11:38:13.250Z,8.85
2023-04-26T11:39:14.224Z,9.12
2023-04-26T11:40:14.254Z,9.31
2023-04-26T11:41:13.229Z,9.31
2023-04-26T11:42:13.237Z,9.52
2023-04-26T11:43:13.235Z,9.67
2023-04-26T11:44:13.252Z,9.70
2023-04-26T11:45:13.225Z,9.78
2023-04-26T11:46:13.255Z,9.70
2023-04-26T11:47:13.243Z,9.85
2023-04-26T11:48:13.259Z,9.75
2023-04-26T11:49:13.195Z,9.91
2023-04-26T11:50:13.225Z,9.80
2023-04-26T11:51:13.228Z,9.81
2023-04-26T11:52:13.192Z,9.88
2023-04-26T11:53:13.161Z,10.06
2023-04-26T11:54:13.216Z,9.95
2023-04-26T11:55:13.190Z,9.96
2023-04-26T11:56:13.187Z,10.01
2023-04-26T11:57:14.666Z,10.16
2023-04-26T11:58:13.148Z,10.26
2023-04-26T11:59:13.174Z,10.34
2023-04-26T12:00:13.189Z,10.39
2023-04-26T12:01:13.160Z,10.14
2023-04-26T12:02:13.217Z,10.07
2023-04-26T12:03:13.232Z,9.99
2023-04-26T12:04:13.271Z,10.01
2023-04-26T12:05:13.267Z,9.85
2023-04-26T12:06:13.096Z,9.68
2023-04-26T12:07:13.104Z,9.42
2023-04-26T12:08:13.142Z,9.34
2023-04-26T12:09:13.121Z,9.68
2023-04-26T12:10:13.126Z,9.49
2023-04-26T12:11:13.078Z,9.63
2023-04-26T12:12:13.095Z,9.59
2023-04-26T12:13:13.126Z,9.92
2023-04-26T12:14:13.062Z,9.92
2023-04-26T12:15:13.943Z,10.01
2023-04-26T12:16:25.444Z,10.16
2023-04-26T12:17:15.186Z,10.24
2023-04-26T12:18:13.242Z,10.17
2023-04-26T12:19:13.066Z,10.16
2023-04-26T12:20:13.070Z,10.10
2023-04-26T12:21:13.061Z,10.20
2023-04-26T12:22:13.060Z,10.34
2023-04-26T12:23:13.018Z,10.32
2023-04-26T12:24:13.025Z,9.85
2023-04-26T12:25:13.025Z,9.98
2023-04-26T12:26:13.004Z,9.75
2023-04-26T12:27:13.046Z,9.65
2023-04-26T12:28:13.163Z,9.73
2023-04-26T12:29:13.023Z,9.70
2023-04-26T12:30:12.993Z,9.78
2023-04-26T12:31:13.012Z,9.80
2023-04-26T12:32:13.050Z,9.80
2023-04-26T12:33:17.589Z,9.85
2023-04-26T12:34:15.005Z,9.91
2023-04-26T12:35:12.971Z,10.11
2023-04-26T12:36:12.965Z,10.28
2023-04-26T12:37:12.955Z,10.44
2023-04-26T12:38:13.276Z,10.52
2023-04-26T12:39:12.984Z,10.57
2023-04-26T12:40:12.961Z,10.46
2023-04-26T12:41:12.935Z,10.43
2023-04-26T12:42:12.951Z,10.51
2023-04-26T12:43:13.039Z,10.70
2023-04-26T12:44:12.915Z,10.78
2023-04-26T12:45:12.992Z,11.01
2023-04-26T12:46:12.977Z,11.11
2023-04-26T12:47:12.935Z,11.28
2023-04-26T12:48:13.026Z,11.39
2023-04-26T12:49:12.925Z,11.62
2023-04-26T12:50:13.028Z,11.69
2023-04-26T12:51:12.939Z,11.46
2023-04-26T12:52:12.877Z,11.49
2023-04-26T12:53:12.859Z,11.56
2023-04-26T12:54:12.910Z,11.62
2023-04-26T12:55:12.964Z,11.67
2023-04-26T12:56:12.888Z,11.64
2023-04-26T12:57:12.841Z,10.90
2023-04-26T12:58:13.031Z,10.80
2023-04-26T12:59:12.867Z,10.83
2023-04-26T13:00:14.285Z,10.99
2023-04-26T13:01:13.157Z,10.99
2023-04-26T13:02:13.193Z,10.91
2023-04-26T13:03:13.295Z,10.66
2023-04-26T13:04:13.119Z,10.63
2023-04-26T13:05:14.249Z,10.72
2023-04-26T13:06:12.826Z,10.78
2023-04-26T13:07:13.091Z,10.90
2023-04-26T13:08:12.987Z,10.63
2023-04-26T13:09:12.845Z,10.44
2023-04-26T13:10:13.363Z,10.22
2023-04-26T13:11:12.739Z,10.28